Ashern, Canada
Current Conditions -  °F | °C
As of 7:00 AM on Friday 24 Oct 2014 (Local Time) from CYDN Reporting Station
Overcast Overcast  
Wind Chill: 50°   Ceiling: 19000
Heat Index: 50°   Visibility: 9mi
Dew Point: 41°   Wind: 8mph
Humidity: 71%   Direction: 240°WSW
Pressure: 29.59"   Gusts: NA
Location:  51.18°N, 98.33°W
Report Text: CYDN 241200Z AUTO 24007KT 9SM SCT160 OVC190 10/05 A2959 RMK SLP026 DENSITY ALT 1000FT
Loading
Personal Weather Stations






























Interactive Weather Map New forecast layout! Learn more

10-Day Weather Forecast

Advertisements
Track Severe Weather on mobile